Time;durP1;ratioP1;P1;durP2;ratioP2;P2;SDS_P1;SDS_P2;PMS_P1;PMS_P2;Temp;Humidity;BMP_temperature;BMP_pressure;BME280_temperature;BME280_humidity;BME280_pressure;Samples;Min_cycle;Max_cycle;Signal;HPM_P1;HPM_P2
2023/04/06 00:00:47;;;;;;;25.63;16.17;;;;;;;5.57;57.66;101707.84;5072024;28;20028;-44
2023/04/06 00:03:13;;;;;;;24.50;15.95;;;;;;;5.60;57.97;101719.16;5072106;28;20021;-43
2023/04/06 00:05:38;;;;;;;25.70;16.23;;;;;;;5.55;57.93;101715.50;5072044;28;20020;-44
2023/04/06 00:08:03;;;;;;;25.17;16.27;;;;;;;5.54;57.41;101711.09;5072110;28;20032;-43
2023/04/06 00:10:29;;;;;;;25.52;16.35;;;;;;;5.54;57.00;101714.66;5072142;28;20497;-44
2023/04/06 00:12:56;;;;;;;24.50;15.93;;;;;;;5.50;57.08;101705.28;5071947;28;20044;-44
2023/04/06 00:15:21;;;;;;;25.90;16.27;;;;;;;5.48;57.66;101710.19;5071940;28;20080;-44
2023/04/06 00:17:47;;;;;;;25.60;17.42;;;;;;;5.46;57.42;101706.84;5071881;28;20482;-43
2023/04/06 00:20:12;;;;;;;27.27;17.25;;;;;;;5.51;57.05;101706.94;5071910;28;20020;-43
2023/04/06 00:22:37;;;;;;;25.27;16.40;;;;;;;5.53;57.06;101709.41;5071401;28;20020;-43
2023/04/06 00:25:03;;;;;;;24.73;16.58;;;;;;;5.49;56.50;101697.28;5071860;28;20028;-43
2023/04/06 00:27:28;;;;;;;26.15;16.98;;;;;;;5.50;57.32;101699.78;5071867;28;20047;-44
2023/04/06 00:29:53;;;;;;;26.25;17.27;;;;;;;5.51;57.58;101701.44;5071711;28;20100;-43
2023/04/06 00:32:18;;;;;;;25.45;16.75;;;;;;;5.51;57.25;101695.97;5071757;28;20702;-48
2023/04/06 00:34:44;;;;;;;24.38;16.55;;;;;;;5.46;57.28;101683.00;5071933;28;20029;-43
2023/04/06 00:37:11;;;;;;;25.50;16.10;;;;;;;5.49;56.69;101692.63;5071837;28;20491;-43
2023/04/06 00:39:36;;;;;;;25.65;16.52;;;;;;;5.50;57.18;101682.47;5071628;28;20150;-44
2023/04/06 00:42:13;;;;;;;25.05;16.42;;;;;;;5.47;56.92;101675.56;5071649;28;20072;-44
2023/04/06 00:44:39;;;;;;;25.95;17.02;;;;;;;5.49;56.78;101676.16;5071566;28;20025;-43
2023/04/06 00:47:04;;;;;;;24.00;16.50;;;;;;;5.49;56.88;101676.16;5071760;28;20111;-43
2023/04/06 00:49:30;;;;;;;26.50;16.70;;;;;;;5.50;56.36;101676.97;5071432;28;20192;-43
2023/04/06 00:51:55;;;;;;;24.33;15.90;;;;;;;5.48;56.77;101671.75;5071435;28;20048;-44
2023/04/06 00:54:20;;;;;;;24.30;16.00;;;;;;;5.51;56.22;101675.91;5071464;28;20795;-43
2023/04/06 00:56:46;;;;;;;25.85;16.02;;;;;;;5.49;56.71;101664.34;5071511;28;20028;-43
2023/04/06 00:59:12;;;;;;;24.38;17.23;;;;;;;5.41;56.86;101663.69;5071551;28;20031;-43
2023/04/06 01:01:37;;;;;;;24.98;16.88;;;;;;;5.41;56.63;101669.19;5081959;28;20036;-44
2023/04/06 01:04:02;;;;;;;26.75;17.15;;;;;;;5.37;56.80;101661.69;5091524;28;20381;-45
2023/04/06 01:06:28;;;;;;;26.90;16.95;;;;;;;5.39;56.56;101654.06;5091503;28;20036;-44
2023/04/06 01:08:54;;;;;;;25.88;17.63;;;;;;;5.37;56.45;101648.81;5091578;28;20031;-43
2023/04/06 01:11:19;;;;;;;24.95;17.23;;;;;;;5.38;56.53;101647.75;5091503;28;20055;-43
2023/04/06 01:13:44;;;;;;;26.73;16.95;;;;;;;5.31;57.43;101647.91;5091533;28;20040;-43
2023/04/06 01:16:10;;;;;;;27.17;18.50;;;;;;;5.30;56.72;101650.88;5084031;28;20090;-43
2023/04/06 01:18:37;;;;;;;26.75;17.48;;;;;;;5.25;56.44;101645.34;5071406;28;20104;-43
2023/04/06 01:21:02;;;;;;;25.98;17.42;;;;;;;5.23;56.66;101639.25;5075849;28;20048;-44
2023/04/06 01:23:27;;;;;;;24.83;17.02;;;;;;;5.28;57.09;101647.59;5091544;28;20032;-43
2023/04/06 01:25:53;;;;;;;26.38;17.70;;;;;;;5.26;57.29;101642.34;5091287;28;20075;-43
2023/04/06 01:28:18;;;;;;;25.15;17.48;;;;;;;5.24;57.54;101643.66;5091162;28;20039;-42
2023/04/06 01:30:43;;;;;;;25.17;17.40;;;;;;;5.27;57.67;101632.19;5095340;28;20093;-43
2023/04/06 01:33:09;;;;;;;25.95;17.85;;;;;;;5.29;58.27;101641.03;5095393;28;20032;-42
2023/04/06 01:35:35;;;;;;;25.45;17.58;;;;;;;5.25;58.28;101626.13;5095279;28;20035;-43
2023/04/06 01:38:00;;;;;;;26.10;17.65;;;;;;;5.28;57.50;101625.63;5094866;28;20032;-42
2023/04/06 01:40:25;;;;;;;31.00;17.60;;;;;;;5.30;59.00;101628.94;5095189;28;20016;-43
2023/04/06 01:42:50;;;;;;;25.38;17.67;;;;;;;5.26;58.06;101625.88;5095011;28;20059;-43
2023/04/06 01:45:16;;;;;;;26.60;17.77;;;;;;;5.27;57.63;101624.78;5095314;28;20125;-41
2023/04/06 01:47:41;;;;;;;25.73;18.65;;;;;;;5.26;57.74;101608.59;5094897;28;20488;-42
2023/04/06 01:50:07;;;;;;;26.25;18.00;;;;;;;5.27;57.58;101619.31;5095154;28;20173;-43
2023/04/06 01:52:33;;;;;;;25.80;17.10;;;;;;;5.30;57.36;101616.06;5079381;28;20849;-43
2023/04/06 01:54:58;;;;;;;26.52;18.25;;;;;;;5.35;57.38;101611.72;5074651;28;20029;-42
2023/04/06 01:57:25;;;;;;;27.20;17.40;;;;;;;5.38;58.01;101609.31;5088538;28;20116;-44
2023/04/06 01:59:50;;;;;;;25.77;17.50;;;;;;;5.39;57.58;101615.63;5093524;28;20024;-43
2023/04/06 02:02:15;;;;;;;26.05;17.73;;;;;;;5.41;57.58;101605.25;5094731;28;20039;-42
2023/04/06 02:04:41;;;;;;;26.75;17.27;;;;;;;5.42;57.69;101606.91;5094863;28;20485;-43
2023/04/06 02:07:06;;;;;;;27.08;18.63;;;;;;;5.41;58.03;101599.75;5082298;28;20039;-43
2023/04/06 02:09:31;;;;;;;26.92;17.80;;;;;;;5.42;57.40;101595.94;5074277;28;20034;-43
2023/04/06 02:11:57;;;;;;;24.40;17.08;;;;;;;5.46;57.41;101597.06;5083675;28;20452;-42
2023/04/06 02:14:25;;;;;;;28.15;18.20;;;;;;;5.52;57.76;101589.75;5094754;28;20059;-43
2023/04/06 02:16:51;;;;;;;27.63;18.38;;;;;;;5.57;57.22;101595.31;5094417;28;20051;-43
2023/04/06 02:19:16;;;;;;;25.35;17.75;;;;;;;5.59;57.44;101583.00;5094353;28;20070;-43
2023/04/06 02:21:42;;;;;;;27.40;17.77;;;;;;;5.63;57.38;101578.63;5094270;28;20039;-44
2023/04/06 02:24:07;;;;;;;28.25;19.00;;;;;;;5.71;57.19;101584.78;5094389;28;20020;-43
2023/04/06 02:26:32;;;;;;;26.05;18.48;;;;;;;5.67;56.77;101578.94;5094180;28;20028;-43
2023/04/06 02:28:57;;;;;;;26.48;18.08;;;;;;;5.62;57.36;101570.66;5094205;28;20461;-42
2023/04/06 02:31:23;;;;;;;29.52;18.50;;;;;;;5.64;57.44;101576.72;5085909;28;20048;-43
2023/04/06 02:33:48;;;;;;;28.52;18.48;;;;;;;5.62;57.70;101567.91;5094264;28;20089;-42
2023/04/06 02:36:13;;;;;;;28.15;18.58;;;;;;;5.61;57.51;101563.50;5094122;28;20028;-43
2023/04/06 02:38:39;;;;;;;27.60;18.17;;;;;;;5.63;58.14;101570.41;5093860;28;20048;-42
2023/04/06 02:41:04;;;;;;;26.33;18.17;;;;;;;5.56;57.91;101557.97;5091126;28;20024;-43
2023/04/06 02:43:30;;;;;;;28.23;19.90;;;;;;;5.59;58.29;101566.53;5094016;28;20024;-44
2023/04/06 02:45:55;;;;;;;27.27;18.23;;;;;;;5.58;58.67;101561.25;5093947;28;20024;-41
2023/04/06 02:48:20;;;;;;;27.25;19.05;;;;;;;5.54;58.67;101565.63;5093846;28;20039;-42
2023/04/06 02:50:45;;;;;;;28.83;18.15;;;;;;;5.55;58.41;101559.88;5093489;28;20089;-42
2023/04/06 02:53:11;;;;;;;28.08;18.98;;;;;;;5.54;58.19;101560.94;5093819;28;20113;-42
2023/04/06 02:55:36;;;;;;;28.17;19.73;;;;;;;5.54;58.57;101549.97;5093730;28;20461;-42
2023/04/06 02:58:01;;;;;;;29.50;19.42;;;;;;;5.58;58.64;101555.78;5077769;28;20113;-42
2023/04/06 03:00:27;;;;;;;28.13;20.20;;;;;;;5.56;58.46;101552.47;5073476;28;20081;-42
2023/04/06 03:02:52;;;;;;;28.55;19.42;;;;;;;5.54;58.83;101549.97;5072042;28;20154;-42
2023/04/06 03:05:17;;;;;;;27.65;19.08;;;;;;;5.54;58.73;101551.91;5073375;28;20027;-43
2023/04/06 03:07:43;;;;;;;29.83;19.83;;;;;;;5.56;59.09;101544.25;5085977;28;20096;-43
2023/04/06 03:10:09;;;;;;;28.27;19.05;;;;;;;5.54;58.44;101551.91;5093502;28;20374;-43
2023/04/06 03:12:35;;;;;;;28.55;20.15;;;;;;;5.54;59.40;101543.66;5093164;28;20506;-44
2023/04/06 03:15:00;;;;;;;28.63;20.08;;;;;;;5.56;58.80;101549.72;5092097;28;20029;-43
2023/04/06 03:17:25;;;;;;;29.55;20.55;;;;;;;5.57;59.07;101545.91;5093363;28;20431;-43
2023/04/06 03:19:50;;;;;;;29.60;20.23;;;;;;;5.60;58.67;101542.63;5093299;28;20032;-43
2023/04/06 03:22:16;;;;;;;30.92;20.70;;;;;;;5.59;59.17;101535.47;5092697;28;20020;-43
2023/04/06 03:24:41;;;;;;;31.30;20.65;;;;;;;5.60;59.82;101535.25;5093191;28;20097;-43
2023/04/06 03:27:06;;;;;;;29.17;20.42;;;;;;;5.63;59.39;101536.63;5093057;28;20038;-43
2023/04/06 03:29:32;;;;;;;30.88;20.25;;;;;;;5.63;59.85;101533.91;5093014;28;20020;-45
2023/04/06 03:31:57;;;;;;;28.63;19.52;;;;;;;5.47;59.34;101509.00;5092940;28;20032;-43
2023/04/06 03:34:22;;;;;;;26.80;19.27;;;;;;;5.61;60.38;101533.31;5093038;28;20031;-44
2023/04/06 03:36:47;;;;;;;29.23;20.25;;;;;;;5.67;60.75;101532.28;5093034;28;20457;-43
2023/04/06 03:39:13;;;;;;;29.63;20.65;;;;;;;5.74;60.71;101532.94;5092792;28;20044;-44
2023/04/06 03:41:38;;;;;;;28.55;20.27;;;;;;;5.77;60.05;101531.59;5092726;28;20032;-43
2023/04/06 03:44:05;;;;;;;29.15;20.73;;;;;;;5.72;60.23;101524.13;5092842;28;20040;-44
2023/04/06 03:46:30;;;;;;;29.83;20.77;;;;;;;5.71;60.12;101527.13;5092550;28;20059;-44
2023/04/06 03:48:56;;;;;;;28.15;20.10;;;;;;;5.72;59.88;101524.13;5092765;28;20457;-43
2023/04/06 03:51:21;;;;;;;30.23;21.52;;;;;;;5.75;59.97;101528.25;5092350;28;20024;-42
2023/04/06 03:53:46;;;;;;;29.80;21.17;;;;;;;5.74;59.49;101510.97;5092418;28;20031;-43
2023/04/06 03:56:12;;;;;;;28.60;20.25;;;;;;;5.71;59.55;101510.66;5092626;28;20038;-44
2023/04/06 03:58:37;;;;;;;28.27;21.10;;;;;;;5.74;59.52;101510.97;5092467;28;20405;-43
2023/04/06 04:01:02;;;;;;;29.48;21.73;;;;;;;5.69;59.85;101515.56;5091120;28;20093;-44
2023/04/06 04:03:27;;;;;;;29.60;21.40;;;;;;;5.64;59.35;101521.84;5092126;28;20034;-44
2023/04/06 04:05:55;;;;;;;31.08;21.38;;;;;;;5.62;59.52;101521.25;5090678;28;20028;-43
2023/04/06 04:08:20;;;;;;;30.27;21.42;;;;;;;5.60;59.75;101518.78;5092222;28;20133;-43
2023/04/06 04:10:46;;;;;;;30.95;21.83;;;;;;;5.58;60.40;101525.59;5092278;28;20391;-43
2023/04/06 04:13:11;;;;;;;29.92;20.85;;;;;;;5.61;61.02;101519.59;5092201;28;20119;-43
2023/04/06 04:15:36;;;;;;;30.48;21.08;;;;;;;5.63;59.52;101518.25;5092014;28;20081;-43
2023/04/06 04:18:02;;;;;;;29.98;21.05;;;;;;;5.67;59.75;101515.00;5092183;28;20031;-44
2023/04/06 04:20:28;;;;;;;29.85;21.27;;;;;;;5.68;59.45;101522.97;5092151;28;20051;-44
2023/04/06 04:22:53;;;;;;;29.70;21.23;;;;;;;5.68;59.41;101522.16;5081724;28;20039;-43
2023/04/06 04:25:19;;;;;;;30.52;21.42;;;;;;;5.65;59.14;101526.25;5071788;28;20024;-46
2023/04/06 04:27:44;;;;;;;29.88;21.98;;;;;;;5.62;59.69;101518.50;5080369;28;20070;-44
2023/04/06 04:30:10;;;;;;;30.38;22.13;;;;;;;5.59;60.22;101521.75;5092135;28;20032;-44
2023/04/06 04:32:35;;;;;;;30.73;22.83;;;;;;;5.57;60.58;101518.47;5091921;28;20036;-43
2023/04/06 04:35:01;;;;;;;32.00;22.30;;;;;;;5.50;60.79;101521.38;5091938;28;20023;-43
2023/04/06 04:37:26;;;;;;;29.60;22.00;;;;;;;5.49;60.73;101519.72;5091709;28;20036;-42
2023/04/06 04:39:51;;;;;;;30.73;21.80;;;;;;;5.51;60.47;101519.47;5092165;28;20074;-44
2023/04/06 04:42:17;;;;;;;29.65;22.58;;;;;;;5.49;61.15;101514.25;5091744;28;20035;-44
2023/04/06 04:44:42;;;;;;;30.92;22.75;;;;;;;5.46;61.15;101514.75;5091841;28;20028;-44
2023/04/06 04:47:07;;;;;;;32.17;22.58;;;;;;;5.44;61.31;101515.00;5091576;28;20039;-44
2023/04/06 04:49:32;;;;;;;31.40;22.08;;;;;;;5.50;61.17;101515.06;5091809;28;20088;-43
2023/04/06 04:51:58;;;;;;;31.02;22.98;;;;;;;5.51;61.06;101511.22;5091627;28;20047;-43
2023/04/06 04:54:23;;;;;;;28.88;21.73;;;;;;;5.48;60.67;101512.56;5091554;28;20534;-43
2023/04/06 04:56:48;;;;;;;31.83;22.67;;;;;;;5.43;61.19;101496.06;5091445;28;20043;-43
2023/04/06 04:59:13;;;;;;;31.83;21.83;;;;;;;5.51;61.66;101508.47;5091481;28;20050;-43
2023/04/06 05:01:39;;;;;;;31.73;22.98;;;;;;;5.44;61.36;101505.94;5091638;28;20020;-43
2023/04/06 05:04:04;;;;;;;31.15;22.02;;;;;;;5.44;61.69;101514.16;5094199;28;20028;-43
2023/04/06 05:06:30;;;;;;;31.98;22.65;;;;;;;5.40;61.30;101516.59;5095938;28;20020;-43
2023/04/06 05:08:55;;;;;;;31.42;21.83;;;;;;;5.38;61.45;101510.53;5095541;28;20027;-43
2023/04/06 05:11:21;;;;;;;29.90;21.83;;;;;;;5.42;61.42;101508.94;5095745;28;20028;-44
2023/04/06 05:13:46;;;;;;;31.80;23.20;;;;;;;5.43;61.56;101516.09;5095692;28;20111;-44
2023/04/06 05:16:11;;;;;;;30.55;21.52;;;;;;;5.45;61.55;101513.06;5095824;28;20503;-43
2023/04/06 05:18:37;;;;;;;31.42;22.60;;;;;;;5.47;61.71;101511.75;5095361;28;20536;-43
2023/04/06 05:21:03;;;;;;;30.17;21.55;;;;;;;5.52;62.33;101518.38;5095390;28;20081;-47
2023/04/06 05:23:28;;;;;;;32.25;22.10;;;;;;;5.57;62.18;101513.78;5095241;28;20058;-44
2023/04/06 05:25:53;;;;;;;31.52;22.15;;;;;;;5.58;62.10;101520.09;5095411;28;20027;-46
2023/04/06 05:28:19;;;;;;;33.03;21.52;;;;;;;5.59;61.85;101513.53;5095073;28;20032;-43
2023/04/06 05:30:45;;;;;;;34.75;24.15;;;;;;;5.60;61.74;101510.53;5095335;28;20808;-43
2023/04/06 05:33:12;;;;;;;31.98;23.67;;;;;;;5.62;62.14;101510.28;5094748;28;20032;-44
2023/04/06 05:35:37;;;;;;;31.67;22.60;;;;;;;5.69;61.40;101510.91;5076912;28;20033;-43
2023/04/06 05:38:02;;;;;;;30.25;22.05;;;;;;;5.77;62.31;101504.13;5087184;28;20036;-43
2023/04/06 05:40:27;;;;;;;29.90;21.30;;;;;;;5.88;62.20;101505.06;5092146;28;20051;-43
2023/04/06 05:42:53;;;;;;;34.05;23.00;;;;;;;5.91;62.23;101499.88;5094169;28;20067;-42
2023/04/06 05:45:19;;;;;;;31.15;22.45;;;;;;;5.96;61.78;101506.53;5094400;28;20514;-44
2023/04/06 05:47:44;;;;;;;30.52;21.65;;;;;;;5.97;61.93;101502.69;5094380;28;20035;-43
2023/04/06 05:50:15;;;;;;;30.75;21.23;;;;;;;6.00;62.87;101500.28;5094273;28;20030;-43
2023/04/06 05:52:42;;;;;;;30.13;21.02;;;;;;;6.05;62.25;101497.56;5092087;28;20042;-43
2023/04/06 05:55:09;;;;;;;31.17;21.20;;;;;;;6.10;62.77;101496.78;5094608;28;20358;-44
2023/04/06 05:57:34;;;;;;;29.95;21.10;;;;;;;6.16;62.59;101504.03;5094558;28;20126;-44
2023/04/06 06:00:00;;;;;;;29.90;21.83;;;;;;;6.19;61.99;101494.41;5094883;28;20039;-43
2023/04/06 06:02:25;;;;;;;30.80;22.15;;;;;;;6.21;62.41;101501.31;5094785;28;20358;-44
2023/04/06 06:04:51;;;;;;;30.60;20.98;;;;;;;6.22;62.25;101491.16;5094781;28;20028;-44
2023/04/06 06:07:16;;;;;;;33.55;22.75;;;;;;;6.24;61.85;101494.44;5094681;28;20073;-42
2023/04/06 06:09:41;;;;;;;32.80;21.83;;;;;;;6.27;63.22;101498.63;5094405;28;20068;-42
2023/04/06 06:12:07;;;;;;;30.80;21.17;;;;;;;6.32;62.33;101490.41;5094310;28;20040;-42
2023/04/06 06:14:34;;;;;;;34.08;21.85;;;;;;;6.36;62.61;101497.88;5094018;28;20401;-45
2023/04/06 06:16:59;;;;;;;34.97;22.08;;;;;;;6.39;62.21;101493.75;5094294;28;20074;-43
2023/04/06 06:19:25;;;;;;;34.05;24.15;;;;;;;6.39;61.80;101494.59;5093461;28;20491;-43
2023/04/06 06:21:51;;;;;;;30.67;22.08;;;;;;;6.42;62.85;101497.94;5094110;28;20032;-45
2023/04/06 06:24:16;;;;;;;30.95;21.88;;;;;;;6.41;62.29;101488.84;5094123;28;20028;-43
2023/04/06 06:26:42;;;;;;;30.92;21.17;;;;;;;6.46;62.92;101494.41;5094312;28;20404;-43
2023/04/06 06:29:08;;;;;;;29.88;21.25;;;;;;;6.51;62.60;101488.09;5094311;28;20112;-43
2023/04/06 06:31:33;;;;;;;32.58;22.42;;;;;;;6.53;61.96;101491.41;5094349;28;20070;-42
2023/04/06 06:33:58;;;;;;;29.83;20.85;;;;;;;6.63;62.93;101501.66;5094079;28;20035;-44
2023/04/06 06:36:25;;;;;;;32.58;22.25;;;;;;;6.72;62.11;101505.59;5092752;28;20028;-44
2023/04/06 06:38:51;;;;;;;30.10;20.58;;;;;;;6.82;62.81;101513.06;5093662;28;20036;-43
2023/04/06 06:41:16;;;;;;;31.15;21.42;;;;;;;6.93;62.73;101505.72;5093774;28;20069;-42
2023/04/06 06:43:41;;;;;;;29.70;21.73;;;;;;;7.05;61.00;101500.00;5093920;28;20028;-42
2023/04/06 06:46:07;;;;;;;31.60;20.92;;;;;;;7.19;62.62;101501.19;5093802;28;20020;-42
2023/04/06 06:48:32;;;;;;;29.60;20.73;;;;;;;7.36;61.54;101508.44;5093808;28;20028;-42
2023/04/06 06:50:57;;;;;;;32.05;21.88;;;;;;;7.50;61.53;101504.09;5093637;28;20024;-42
2023/04/06 06:53:23;;;;;;;32.42;21.60;;;;;;;7.54;60.24;101496.09;5093596;28;20050;-41
2023/04/06 06:55:48;;;;;;;31.02;21.23;;;;;;;7.56;60.33;101496.66;5091952;28;20030;-42
2023/04/06 06:58:14;;;;;;;29.83;21.10;;;;;;;7.59;60.83;101496.97;5093417;28;20051;-41
2023/04/06 07:00:39;;;;;;;29.60;21.02;;;;;;;7.63;58.99;101491.72;5093495;28;20035;-42
2023/04/06 07:03:05;;;;;;;29.80;20.75;;;;;;;7.70;59.86;101489.53;5093450;28;20093;-42
2023/04/06 07:05:30;;;;;;;30.90;21.30;;;;;;;7.72;59.88;101481.03;5093675;28;20107;-42
2023/04/06 07:07:56;;;;;;;30.98;21.95;;;;;;;7.84;59.42;101489.84;5093451;28;20059;-43
2023/04/06 07:10:21;;;;;;;27.08;19.67;;;;;;;7.94;60.33;101486.31;5093532;28;20036;-42
2023/04/06 07:12:47;;;;;;;29.02;20.33;;;;;;;7.95;59.66;101474.19;5093235;28;20016;-43
2023/04/06 07:15:12;;;;;;;29.92;20.23;;;;;;;8.06;59.04;101481.38;5093356;28;20036;-42
2023/04/06 07:17:38;;;;;;;28.05;20.05;;;;;;;8.06;58.80;101481.38;5093395;28;20050;-42
2023/04/06 07:20:03;;;;;;;29.10;21.08;;;;;;;8.08;59.21;101490.19;5093325;28;20054;-41
2023/04/06 07:22:29;;;;;;;29.52;20.45;;;;;;;8.08;57.84;101484.66;5092354;28;20060;-43
2023/04/06 07:24:54;;;;;;;29.10;21.13;;;;;;;8.13;58.14;101481.09;5092435;28;20536;-42
2023/04/06 07:27:20;;;;;;;27.38;19.60;;;;;;;8.15;57.99;101478.09;5092269;28;20028;-42
2023/04/06 07:29:45;;;;;;;30.45;20.88;;;;;;;8.13;58.04;101481.09;5092931;28;20516;-43
2023/04/06 07:32:11;;;;;;;29.17;20.20;;;;;;;8.17;58.35;101478.66;5093201;28;20071;-45
2023/04/06 07:34:36;;;;;;;28.85;21.13;;;;;;;8.14;57.06;101474.47;5092915;28;20031;-43
2023/04/06 07:37:02;;;;;;;28.95;21.48;;;;;;;8.20;57.38;101469.81;5093052;28;20453;-43
2023/04/06 07:39:28;;;;;;;27.70;20.17;;;;;;;8.22;57.38;101476.69;5092934;28;20127;-42
2023/04/06 07:41:53;;;;;;;28.23;20.67;;;;;;;8.25;57.40;101467.88;5091631;28;20099;-42
2023/04/06 07:44:18;;;;;;;28.95;20.75;;;;;;;8.32;56.59;101478.63;5092677;28;20487;-43
2023/04/06 07:46:44;;;;;;;28.73;20.77;;;;;;;8.36;56.57;101476.97;5092516;28;20027;-44
2023/04/06 07:49:09;;;;;;;32.17;21.48;;;;;;;8.40;57.10;101477.28;5092503;28;20486;-50
2023/04/06 07:51:38;;;;;;;29.55;20.83;;;;;;;8.42;56.63;101473.13;5089661;28;20020;-45
2023/04/06 07:54:04;;;;;;;30.27;21.10;;;;;;;8.46;55.99;101470.63;5092523;28;20039;-42
2023/04/06 07:56:29;;;;;;;28.67;20.40;;;;;;;8.49;56.35;101475.66;5092617;28;20032;-42
2023/04/06 07:58:56;;;;;;;29.55;20.27;;;;;;;8.52;56.38;101477.00;5089748;28;20028;-43
2023/04/06 08:01:22;;;;;;;29.83;21.10;;;;;;;8.53;56.29;101473.16;5092267;28;20461;-42
2023/04/06 08:03:47;;;;;;;28.45;20.77;;;;;;;8.58;56.10;101473.97;5092601;28;20043;-42
2023/04/06 08:06:13;;;;;;;29.83;20.92;;;;;;;8.61;56.20;101464.31;5092412;28;20197;-43
2023/04/06 08:08:38;;;;;;;29.98;20.63;;;;;;;8.63;55.68;101470.41;5092244;28;20035;-44
2023/04/06 08:11:03;;;;;;;30.38;21.88;;;;;;;8.66;55.68;101471.75;5092362;28;20107;-43
2023/04/06 08:13:29;;;;;;;30.17;21.60;;;;;;;8.65;56.21;101470.91;5089703;28;20039;-42
2023/04/06 08:15:54;;;;;;;29.23;21.60;;;;;;;8.69;55.81;101477.53;5072113;28;20028;-44
2023/04/06 08:18:20;;;;;;;29.17;21.42;;;;;;;8.73;56.24;101481.41;5072114;28;20064;-44
2023/04/06 08:20:45;;;;;;;30.88;21.52;;;;;;;8.78;55.63;101471.47;5071994;28;20059;-45
2023/04/06 08:23:10;;;;;;;29.50;20.55;;;;;;;8.79;55.81;101468.41;5071715;28;20111;-43
2023/04/06 08:25:36;;;;;;;29.27;20.88;;;;;;;8.86;55.80;101477.25;5070577;28;20032;-43
2023/04/06 08:28:02;;;;;;;30.08;20.80;;;;;;;8.83;55.89;101482.50;5071897;28;20031;-44
2023/04/06 08:30:29;;;;;;;28.50;20.98;;;;;;;8.83;55.26;101483.31;5071896;28;20025;-44
2023/04/06 08:32:54;;;;;;;28.70;20.30;;;;;;;8.88;55.94;101483.28;5071924;28;20024;-43
2023/04/06 08:35:20;;;;;;;29.35;21.25;;;;;;;8.92;55.93;101480.84;5071801;28;20378;-43
2023/04/06 08:37:45;;;;;;;29.83;20.83;;;;;;;8.89;55.63;101468.41;5071722;28;20032;-44
2023/04/06 08:40:12;;;;;;;33.72;21.35;;;;;;;9.03;55.73;101476.91;5071818;28;20025;-43
2023/04/06 08:42:41;;;;;;;30.73;20.98;;;;;;;9.10;55.70;101484.09;5071254;28;20024;-43
2023/04/06 08:45:08;;;;;;;30.70;21.25;;;;;;;9.13;55.15;101481.59;5072278;28;20029;-43
2023/04/06 08:47:34;;;;;;;30.02;21.30;;;;;;;9.15;55.25;101490.44;5091889;28;20042;-43
2023/04/06 08:50:04;;;;;;;32.10;21.35;;;;;;;9.19;54.42;101485.97;5091392;28;20103;-42
2023/04/06 08:52:32;;;;;;;30.50;21.85;;;;;;;9.21;54.92;101477.41;5091311;28;20461;-43
2023/04/06 08:54:58;;;;;;;28.45;21.02;;;;;;;9.31;54.70;101485.66;5091476;28;20028;-41
2023/04/06 08:57:24;;;;;;;28.33;20.80;;;;;;;9.35;54.72;101486.75;5090562;28;20028;-44
2023/04/06 08:59:50;;;;;;;30.08;21.40;;;;;;;9.38;54.06;101490.88;5091365;28;20473;-43
2023/04/06 09:02:18;;;;;;;29.73;20.98;;;;;;;9.35;53.74;101477.66;5091625;28;20032;-44
2023/04/06 09:04:47;;;;;;;27.83;21.13;;;;;;;9.32;54.31;101476.28;5091824;28;20096;-43
2023/04/06 09:07:13;;;;;;;30.15;20.63;;;;;;;9.44;54.50;101484.25;5091091;28;20051;-43
2023/04/06 09:09:43;;;;;;;29.80;20.02;;;;;;;9.51;54.35;101487.53;5091557;28;20058;-44
2023/04/06 09:12:12;;;;;;;29.92;20.65;;;;;;;9.57;54.64;101493.00;5090297;28;20392;-44
2023/04/06 09:14:38;;;;;;;29.67;21.50;;;;;;;9.56;54.60;101488.59;5091606;28;20028;-43
2023/04/06 09:17:04;;;;;;;29.52;20.58;;;;;;;9.57;54.34;101491.09;5091009;28;20036;-43
2023/04/06 09:19:29;;;;;;;31.33;20.90;;;;;;;9.54;54.35;101490.84;5071633;28;20032;-43
2023/04/06 09:22:03;;;;;;;28.23;21.02;;;;;;;9.53;54.46;101473.41;5071235;28;20033;-43
2023/04/06 09:24:38;;;;;;;;;;;;;;;9.65;55.37;101496.03;5071869;28;20048;-43
2023/04/06 09:27:04;;;;;;;31.23;21.08;;;;;;;9.67;55.84;101479.16;5071508;28;19912;-44
2023/04/06 09:29:29;;;;;;;29.58;21.33;;;;;;;9.81;54.81;101484.88;5071126;28;20397;-44
2023/04/06 09:32:05;;;;;;;29.27;21.30;;;;;;;9.81;54.78;101488.47;5071523;28;20039;-44
2023/04/06 09:34:32;;;;;;;28.50;20.88;;;;;;;9.82;55.62;101483.78;5070946;28;20032;-43
2023/04/06 09:36:58;;;;;;;29.02;20.80;;;;;;;9.86;55.49;101481.25;5071227;28;20020;-44
2023/04/06 09:39:24;;;;;;;29.23;20.63;;;;;;;9.86;55.54;101495.06;5070937;28;20049;-42
2023/04/06 09:41:54;;;;;;;28.15;20.58;;;;;;;9.88;56.57;101477.09;5071159;28;20093;-42
2023/04/06 09:44:20;;;;;;;27.83;20.27;;;;;;;9.92;57.40;101478.19;5071224;28;20024;-42
2023/04/06 09:46:46;;;;;;;28.83;19.48;;;;;;;9.97;57.39;101482.84;5071067;28;20029;-43
2023/04/06 09:49:13;;;;;;;27.90;19.95;;;;;;;10.03;57.44;101481.69;5072072;28;20017;-42
2023/04/06 09:51:53;;;;;;;29.77;20.00;;;;;;;10.11;58.17;101483.03;5073464;28;20426;-43
2023/04/06 09:54:20;;;;;;;29.17;20.42;;;;;;;10.14;58.31;101480.53;5092198;28;20097;-43
2023/04/06 09:56:49;;;;;;;29.90;20.67;;;;;;;10.22;58.78;101489.31;5094284;28;20032;-43
2023/04/06 09:59:31;;;;;;;28.88;20.42;;;;;;;10.25;59.19;101485.97;5092504;28;20035;-43
2023/04/06 10:01:58;;;;;;;26.83;20.30;;;;;;;10.26;58.53;101479.34;5091132;28;20036;-43
2023/04/06 10:04:29;;;;;;;28.05;19.77;;;;;;;10.30;59.94;101494.22;5093769;28;20044;-43
2023/04/06 10:06:55;;;;;;;26.45;17.92;;;;;;;10.34;60.18;101481.47;5093628;28;20032;-42
2023/04/06 10:09:25;;;;;;;25.65;17.83;;;;;;;10.40;60.20;101482.28;5092618;28;20046;-42
2023/04/06 10:11:51;;;;;;;24.92;17.40;;;;;;;10.40;61.26;101485.88;5090200;28;20082;-43
2023/04/06 10:14:17;;;;;;;26.08;18.00;;;;;;;10.37;61.51;101485.59;5092050;28;20052;-43
2023/04/06 10:16:43;;;;;;;26.15;18.27;;;;;;;10.38;63.28;101493.66;5093043;28;20129;-43
2023/04/06 10:19:23;;;;;;;25.90;17.85;;;;;;;10.39;62.41;101497.25;5091954;28;20032;-43
2023/04/06 10:21:53;;;;;;;24.90;17.48;;;;;;;10.28;62.33;101488.19;5081181;28;20039;-43
2023/04/06 10:24:19;;;;;;;25.65;17.60;;;;;;;10.36;62.65;101490.31;5094544;28;20032;-43
2023/04/06 10:27:01;;;;;;;25.52;18.17;;;;;;;10.37;63.33;101497.53;5094534;28;20362;-43
2023/04/06 10:29:27;;;;;;;24.92;17.73;;;;;;;10.39;65.15;101497.25;5089741;28;20040;-43
2023/04/06 10:31:52;;;;;;;25.88;18.45;;;;;;;10.40;65.92;101498.88;5085709;28;20105;-42
2023/04/06 10:34:17;;;;;;;26.00;17.02;;;;;;;10.46;65.41;101492.19;5073706;28;20036;-42
2023/04/06 10:36:43;;;;;;;25.75;17.63;;;;;;;10.49;65.78;101493.53;5073788;28;20025;-42
2023/04/06 10:39:08;;;;;;;26.63;17.50;;;;;;;10.52;64.82;101491.06;5092917;28;20094;-42
2023/04/06 10:41:35;;;;;;;25.38;17.23;;;;;;;10.51;64.90;101494.94;5093948;28;20419;-43
2023/04/06 10:44:01;;;;;;;26.80;16.67;;;;;;;10.52;66.21;101501.28;5093988;28;20032;-42
2023/04/06 10:46:28;;;;;;;23.05;15.98;;;;;;;10.43;66.16;101482.53;5093941;28;20030;-42
2023/04/06 10:48:54;;;;;;;22.92;15.20;;;;;;;10.54;66.56;101490.75;5094082;28;20028;-42
2023/04/06 10:51:26;;;;;;;24.98;16.20;;;;;;;10.56;67.89;101492.09;5093932;28;20031;-42
2023/04/06 10:53:53;;;;;;;26.33;16.20;;;;;;;10.54;67.73;101487.97;5094027;28;20031;-43
2023/04/06 10:56:22;;;;;;;23.58;16.00;;;;;;;10.50;66.69;101484.13;5092728;28;20106;-43
2023/04/06 10:58:49;;;;;;;22.50;15.13;;;;;;;10.53;66.00;101478.84;5092395;28;20389;-44
2023/04/06 11:01:18;;;;;;;22.52;15.23;;;;;;;10.55;67.22;101476.63;5086915;28;20042;-43
2023/04/06 11:03:46;;;;;;;21.98;14.82;;;;;;;10.59;67.48;101483.22;5084844;28;20023;-43
2023/04/06 11:06:18;;;;;;;22.65;15.15;;;;;;;10.60;68.85;101472.97;5072217;28;20044;-42
2023/04/06 11:08:44;;;;;;;23.55;15.32;;;;;;;10.63;69.75;101482.66;5072293;28;20032;-43
2023/04/06 11:11:15;;;;;;;23.63;15.50;;;;;;;10.60;68.68;101478.50;5072265;28;20028;-42